Current Conditions

Updated: 21-Jan-2019 4:47 PM  
Summary / Temperature Wind Rain






Feels like: 53°F

1-hour difference
2.1°F 2.1°F colder than last hour.

24-hour difference
8.8°F8.8°F colder than yesterday at this time.

  Today Yesterday
High: 55.2°F
2:31 PM
64.6°F
2:45 PM
Low: 41.0°F
6:26 AM
43.3°F
5:32 AM
Calm NNW
0.0
Gust:  0.0 mph
0 Beaufort - Calm

Today: 20.7 - 5:59 PM
Month: 21.0 mph - Jan 20
Rain Today: 0.11 in
Current Rate (/hr): 0.000 in
Max Rate (/hr):
Rain Yesterday: 0.03 in
Storm Rain: 0.13 in
This Month: 1.90 in
Season Total: 4.22 in
Last Rain Event: Today
Humidity / Barometer Sun / Moon
Humidity: 75 Increased 7.0% in the last hour.
Dew Point: 44.9°F Increased 0.6°F in the last hour.
Barometer: 30.186 inHg  
Baro Trend: Steady
Sunrise: 7:04 AM
Sunset: 5:11 PM
Moonrise: 6:10 PM
Moonset: 8:20 AM
Sky Conditions UV Index
Summary: Clear
Visibility: 10 miles
Clouds: None
KVIS - 3:56 PM PST
Current: 1.0  Low 
Monday: 2.1  Low 
Tuesday: 2.7  Low 
Air Quality Fire Danger
 Good 
Ozone 36 ppb
PM 2.5 4 μg/m3
4:40 PM PST
Current: 1  Low 

Local Alerts Local Forecast
Local NWS Alerts
Today

Rain
Showers
High 52
Tonight

Partly
Cloudy
Low 36
Tue

Mostly
Sunny
High 57
Tue night

Clear

Low 36
Wed

Mostly
Sunny
High 56
Wed night

Mostly
Clear
Low 39
Thu

Mostly
Sunny
High 59

Local Radar Local Satellite Neighborhood Cam Sky Cam
Local Radar Local Satellite Neighborhood Cam Sky Cam


Nearby Airport Stations

KVIS - Visalia, California, USA
Distance from station: W 14mi, 23km
Updated: Mon, 21-Jan-2019 3:56pm PST
Clear
Clear
 Wind from NW
Wind: NW 8 mph , 13 km/h
Temperature: 54°F , 12°C
Dew Point: 43°F , 6°C
Humidity: 67%
Barometer: 30.19 inHg , 1022.4 hPa
Clouds: Clear
Visibility: 10 miles , 16 km
2019/01/21 23:56 KVIS 212356Z AUTO 31007KT 10SM CLR 12/06 A3019 RMK AO2 SLP232 6//// T01220056 10128 20100 56009 PNO $
KPTV - Porterville, California, USA
Distance from station: SSE 19mi, 31km
Updated: Mon, 21-Jan-2019 3:56pm PST
Overcast
Overcast
 Wind from NW
Wind: NW 10 mph , 17 km/h
Temperature: 52°F , 11°C
Dew Point: 43°F , 6°C
Humidity: 72%
Barometer: 30.19 inHg , 1022.4 hPa
Clouds: Overcast
Visibility: 10 miles , 16 km
Cloud details: Overcast 6500 ft
2019/01/21 23:56 KPTV 212356Z AUTO 32009KT 10SM OVC065 11/06 A3019 RMK AO2 SLP239 T01110056 10128 20089 55007

Metar display script from Saratoga-Weather.org



Visitor Map